新加坡混合席位

Singapore Metar:
2017/12/16 16:00 WSSS 161600Z 36004KT 290V050 CAVOK 27/24 Q1013 NOSIG

站台狀態: